Time;durP1;ratioP1;P1;durP2;ratioP2;P2;SDS_P1;SDS_P2;PMS_P1;PMS_P2;Temp;Humidity;BMP_temperature;BMP_pressure;BME280_temperature;BME280_humidity;BME280_pressure;Samples;Min_cycle;Max_cycle;Signal;HPM_P1;HPM_P2
2021/11/06 00:01:51;;;;;;;8.33;7.17;;;;;;;9.93;89.74;101153.45;2850840;82;21011;-78
2021/11/06 00:05:53;;;;;;;11.22;8.40;;;;;;;9.88;89.66;101154.24;2854749;83;20983;-77
2021/11/06 00:09:54;;;;;;;10.48;7.30;;;;;;;9.93;89.52;101155.66;2859149;83;21053;-71
2021/11/06 00:13:56;;;;;;;12.53;8.75;;;;;;;9.92;89.46;101155.25;2858987;83;21010;-72
2021/11/06 00:17:57;;;;;;;8.00;7.15;;;;;;;9.92;88.95;101151.75;2859258;83;21026;-75
2021/11/06 00:21:59;;;;;;;10.45;7.95;;;;;;;9.97;89.18;101158.94;2859012;81;21089;-75
2021/11/06 00:26:01;;;;;;;8.88;7.97;;;;;;;9.96;88.80;101162.09;2859264;82;21030;-73
2021/11/06 00:30:06;;;;;;;12.23;9.20;;;;;;;9.97;88.76;101158.94;2858688;83;20976;-77
2021/11/06 00:34:08;;;;;;;9.60;7.58;;;;;;;9.98;88.57;101164.63;2876393;83;21064;-76
2021/11/06 00:38:09;;;;;;;10.85;7.92;;;;;;;9.96;88.22;101170.06;2859096;82;21062;-76
2021/11/06 00:42:11;;;;;;;13.70;8.15;;;;;;;10.00;88.16;101174.69;2858686;83;21042;-77
2021/11/06 00:46:12;;;;;;;9.53;7.03;;;;;;;10.00;87.90;101177.34;2858778;81;21042;-74
2021/11/06 00:50:16;;;;;;;12.40;7.55;;;;;;;10.00;87.85;101177.34;2858591;83;21030;-75
2021/11/06 00:54:18;;;;;;;11.30;7.95;;;;;;;10.03;87.80;101186.47;2875817;82;21025;-78
2021/11/06 00:58:19;;;;;;;15.60;8.53;;;;;;;10.02;87.43;101179.42;2875861;81;21041;-76
2021/11/06 01:02:23;;;;;;;10.50;8.43;;;;;;;9.99;87.43;101180.95;2875481;81;20983;-72
2021/11/06 01:06:24;;;;;;;7.58;6.83;;;;;;;9.96;87.25;101183.81;2829657;83;20988;-75
2021/11/06 01:10:26;;;;;;;12.47;8.63;;;;;;;9.90;87.37;101189.05;2850253;82;21050;-72
2021/11/06 01:14:27;;;;;;;11.68;7.35;;;;;;;9.88;87.65;101191.45;2850263;82;21038;-73
2021/11/06 01:18:29;;;;;;;10.60;8.65;;;;;;;9.88;87.14;101186.97;2850340;83;21038;-74
2021/11/06 01:22:31;;;;;;;13.20;8.43;;;;;;;9.82;86.71;101180.23;2850054;83;21680;-73
2021/11/06 01:26:32;;;;;;;14.58;8.25;;;;;;;9.73;86.20;101174.20;2850619;83;21421;-76
2021/11/06 01:30:35;;;;;;;9.98;7.70;;;;;;;9.64;85.99;101167.67;2850358;83;21098;-73
2021/11/06 01:34:37;;;;;;;10.20;7.72;;;;;;;9.51;85.90;101162.75;2849894;83;21019;-71
2021/11/06 01:38:39;;;;;;;8.50;7.37;;;;;;;9.38;86.02;101170.19;2850771;83;21018;-75
2021/11/06 01:42:41;;;;;;;10.78;7.40;;;;;;;9.36;86.04;101179.19;2850656;82;21002;-73
2021/11/06 01:46:43;;;;;;;13.25;8.58;;;;;;;9.28;85.96;101188.50;2850578;82;21003;-72
2021/11/06 01:50:45;;;;;;;8.05;5.92;;;;;;;9.22;85.63;101188.02;2850408;82;20983;-76
2021/11/06 01:54:46;;;;;;;12.80;8.73;;;;;;;9.16;85.55;101191.90;2850491;83;20995;-73
2021/11/06 01:58:48;;;;;;;10.32;7.00;;;;;;;9.14;85.20;101189.81;2850924;83;21101;-75
2021/11/06 02:02:51;;;;;;;10.10;6.72;;;;;;;9.04;84.83;101193.96;2853342;83;21029;-74
2021/11/06 02:06:52;;;;;;;8.05;6.62;;;;;;;8.96;84.90;101196.63;2829781;82;21019;-78
2021/11/06 02:10:54;;;;;;;7.78;6.97;;;;;;;8.84;85.28;101198.22;2830042;84;20995;-72
2021/11/06 02:14:56;;;;;;;12.05;8.28;;;;;;;8.81;85.21;101204.17;2829815;84;21042;-76
2021/11/06 02:18:58;;;;;;;9.93;6.22;;;;;;;8.80;85.07;101197.16;2830497;84;21050;-72
2021/11/06 02:22:59;;;;;;;9.95;5.65;;;;;;;8.76;85.03;101205.80;2830000;83;21018;-74
2021/11/06 02:27:01;;;;;;;6.03;5.42;;;;;;;8.72;85.10;101210.88;2829972;84;21105;-74
2021/11/06 02:31:03;;;;;;;11.45;7.85;;;;;;;8.67;85.17;101209.84;2829795;82;21038;-74
2021/11/06 02:35:06;;;;;;;9.20;5.33;;;;;;;8.64;85.29;101198.06;2829837;84;20994;-73
2021/11/06 02:39:08;;;;;;;10.25;6.45;;;;;;;8.66;85.14;101205.48;2830094;84;21069;-73
2021/11/06 02:43:10;;;;;;;10.82;6.45;;;;;;;8.60;85.50;101206.32;2830151;84;21089;-73
2021/11/06 02:47:12;;;;;;;9.13;5.92;;;;;;;8.57;85.65;101203.36;2829797;84;21006;-73
2021/11/06 02:51:15;;;;;;;6.97;5.90;;;;;;;8.57;85.72;101207.34;2829729;84;21110;-75
2021/11/06 02:55:18;;;;;;;9.13;6.08;;;;;;;8.51;86.42;101216.98;2829832;84;21014;-72
2021/11/06 02:59:19;;;;;;;9.30;6.72;;;;;;;8.51;86.44;101209.87;2856636;83;21011;-76
2021/11/06 03:03:21;;;;;;;11.70;6.55;;;;;;;8.51;86.33;101215.66;2832997;83;20985;-72
2021/11/06 03:07:22;;;;;;;6.75;5.70;;;;;;;8.46;86.47;101222.52;2863966;81;20991;-74
2021/11/06 03:11:24;;;;;;;8.25;6.17;;;;;;;8.44;86.18;101219.11;2863574;83;21077;-75
2021/11/06 03:15:26;;;;;;;11.75;6.35;;;;;;;8.40;86.22;101219.75;2863364;83;20967;-74
2021/11/06 03:19:28;;;;;;;16.67;6.85;;;;;;;8.33;86.70;101215.75;2863656;83;21006;-73
2021/11/06 03:23:30;;;;;;;10.03;6.08;;;;;;;8.29;87.35;101213.74;2863265;82;21049;-75
2021/11/06 03:27:33;;;;;;;9.30;7.55;;;;;;;8.36;86.95;101216.90;2863494;81;21269;-73
2021/11/06 03:31:35;;;;;;;7.55;6.72;;;;;;;8.40;86.77;101215.77;2863642;83;21089;-71
2021/11/06 03:35:36;;;;;;;8.88;6.03;;;;;;;8.39;86.72;101214.06;2863676;83;20982;-74
2021/11/06 03:39:38;;;;;;;8.95;6.78;;;;;;;8.40;86.52;101207.81;2863901;83;20983;-73
2021/11/06 03:43:39;;;;;;;10.72;7.60;;;;;;;8.39;86.55;101203.46;2863588;82;21117;-74
2021/11/06 03:47:41;;;;;;;10.78;6.92;;;;;;;8.39;86.22;101207.92;2863804;83;21007;-74
2021/11/06 03:51:43;;;;;;;10.90;6.58;;;;;;;8.41;86.18;101214.83;2863708;83;21062;-73
2021/11/06 03:55:44;;;;;;;9.13;5.67;;;;;;;8.38;86.17;101228.27;2863396;83;21066;-71
2021/11/06 03:59:46;;;;;;;10.18;6.75;;;;;;;8.35;86.16;101232.42;2864122;82;21050;-73
2021/11/06 04:03:48;;;;;;;10.08;6.17;;;;;;;8.33;86.46;101232.98;2863662;81;21054;-73
2021/11/06 04:07:50;;;;;;;10.85;7.17;;;;;;;8.33;86.59;101236.96;2863636;81;21042;-74
2021/11/06 04:11:52;;;;;;;7.08;6.08;;;;;;;8.36;86.88;101230.16;2863802;83;20971;-73
2021/11/06 04:15:53;;;;;;;9.83;6.33;;;;;;;8.44;87.20;101229.72;2863471;81;20995;-75
2021/11/06 04:19:55;;;;;;;8.48;6.83;;;;;;;8.50;86.99;101228.55;2863628;81;21019;-72
2021/11/06 04:23:57;;;;;;;10.90;6.90;;;;;;;8.55;86.59;101226.47;2897018;81;21021;-72
2021/11/06 04:27:59;;;;;;;12.65;8.00;;;;;;;8.57;86.29;101231.21;2918314;81;21033;-74
2021/11/06 04:32:00;;;;;;;10.15;7.33;;;;;;;8.65;85.81;101227.66;2918022;81;21022;-75
2021/11/06 04:36:02;;;;;;;10.55;8.33;;;;;;;8.68;85.16;101227.47;2917756;81;21014;-76
2021/11/06 04:40:10;;;;;;;10.90;6.97;;;;;;;8.67;84.83;101235.05;2918266;81;20991;-73
2021/11/06 04:44:12;;;;;;;10.43;6.95;;;;;;;8.73;84.62;101232.97;2918290;81;20973;-74
2021/11/06 04:48:14;;;;;;;9.35;7.12;;;;;;;8.76;84.29;101230.13;2918278;81;21037;-76
2021/11/06 04:52:16;;;;;;;6.65;5.90;;;;;;;8.83;84.77;101245.59;2918211;81;21025;-73
2021/11/06 04:56:17;;;;;;;8.08;5.78;;;;;;;8.80;84.99;101245.78;2918274;81;21053;-74
2021/11/06 05:00:19;;;;;;;10.10;6.25;;;;;;;8.85;85.48;101247.69;2918408;81;21290;-74
2021/11/06 05:04:22;;;;;;;7.62;6.15;;;;;;;8.87;85.32;101251.59;2917628;81;21042;-76
2021/11/06 05:08:24;;;;;;;7.12;5.97;;;;;;;8.90;85.14;101254.51;2874727;83;21050;-75
2021/11/06 05:12:25;;;;;;;9.03;7.35;;;;;;;8.88;84.58;101255.08;2918148;81;21013;-74
2021/11/06 05:16:27;;;;;;;9.93;6.58;;;;;;;8.83;84.47;101264.63;2874744;82;21029;-76
2021/11/06 05:20:29;;;;;;;12.82;8.03;;;;;;;8.78;84.34;101267.58;2918274;81;21025;-74
2021/11/06 05:24:32;;;;;;;12.25;7.90;;;;;;;8.71;84.44;101271.05;2874537;82;20966;-75
2021/11/06 05:28:34;;;;;;;9.85;6.83;;;;;;;8.71;84.44;101272.38;2917811;81;20919;-73
2021/11/06 05:32:36;;;;;;;13.10;7.65;;;;;;;8.68;84.14;101271.70;2874677;82;21300;-72
2021/11/06 05:36:37;;;;;;;12.05;8.03;;;;;;;8.63;83.91;101267.97;2918503;81;21223;-76
2021/11/06 05:40:39;;;;;;;9.43;7.08;;;;;;;8.59;83.82;101274.41;2875061;83;21065;-73
2021/11/06 05:44:41;;;;;;;9.03;7.08;;;;;;;8.48;84.32;101276.31;2918266;81;21057;-73
2021/11/06 05:48:42;;;;;;;10.45;6.78;;;;;;;8.47;84.80;101281.24;2874605;82;20938;-76
2021/11/06 05:52:45;;;;;;;11.70;7.95;;;;;;;8.42;84.80;101280.17;2918051;81;21057;-73
2021/11/06 05:56:46;;;;;;;7.90;6.15;;;;;;;8.41;85.16;101281.59;2875054;83;21022;-73
2021/11/06 06:00:48;;;;;;;7.58;6.83;;;;;;;8.43;85.60;101291.64;2918633;81;21325;-76
2021/11/06 06:04:51;;;;;;;12.35;6.40;;;;;;;8.45;85.34;101299.03;2874305;82;21325;-75
2021/11/06 06:08:53;;;;;;;7.90;7.05;;;;;;;8.46;85.34;101299.91;2918552;81;21034;-74
2021/11/06 06:12:54;;;;;;;10.35;6.80;;;;;;;8.46;85.21;101306.05;2874801;81;21053;-71
2021/11/06 06:16:59;;;;;;;9.75;6.25;;;;;;;8.48;85.01;101296.69;2918163;80;21272;-74
2021/11/06 06:21:01;;;;;;;12.82;7.70;;;;;;;8.48;85.39;101302.00;2861464;79;21095;-69
2021/11/06 06:25:06;;;;;;;14.55;8.63;;;;;;;8.47;85.91;101300.29;2885187;82;21011;-76
2021/11/06 06:29:08;;;;;;;8.43;6.53;;;;;;;8.51;86.19;101306.66;2854264;83;21058;-75
2021/11/06 06:33:10;;;;;;;9.15;7.25;;;;;;;8.61;86.25;101306.99;2854387;83;20979;-72
2021/11/06 06:37:11;;;;;;;10.18;6.67;;;;;;;8.64;86.68;101302.83;2854564;82;21073;-71
2021/11/06 06:41:13;;;;;;;8.48;5.30;;;;;;;8.76;86.66;101307.06;2853848;83;21097;-72
2021/11/06 06:45:15;;;;;;;12.43;8.03;;;;;;;8.79;86.97;101309.08;2853808;83;21046;-75
2021/11/06 06:49:17;;;;;;;10.60;6.55;;;;;;;8.92;86.79;101313.64;2853971;82;21018;-72
2021/11/06 06:53:20;;;;;;;7.72;5.75;;;;;;;9.00;86.60;101306.95;2854043;83;21054;-72
2021/11/06 06:57:22;;;;;;;9.10;6.30;;;;;;;9.12;86.76;101313.81;2853899;83;20995;-72
2021/11/06 07:01:24;;;;;;;12.95;6.80;;;;;;;9.26;86.28;101316.97;2854029;83;21065;-72
2021/11/06 07:05:25;;;;;;;8.75;6.80;;;;;;;9.39;86.01;101311.31;2854128;83;21054;-73
2021/11/06 07:09:27;;;;;;;7.75;5.83;;;;;;;9.54;85.70;101320.63;2854387;83;20976;-76
2021/11/06 07:13:31;;;;;;;6.15;4.80;;;;;;;9.64;85.14;101314.27;2854133;83;20971;-73
2021/11/06 07:17:32;;;;;;;10.10;6.40;;;;;;;9.82;84.97;101314.44;2854203;83;21070;-71
2021/11/06 07:21:35;;;;;;;9.28;7.42;;;;;;;9.93;84.64;101315.13;2853648;83;21003;-71
2021/11/06 07:25:36;;;;;;;10.85;6.78;;;;;;;10.15;84.20;101320.41;2853676;83;21233;-76
2021/11/06 07:29:38;;;;;;;12.20;7.75;;;;;;;10.24;83.70;101321.63;2853884;82;21003;-75
2021/11/06 07:33:39;;;;;;;10.40;7.10;;;;;;;10.42;83.72;101324.92;2853884;83;21058;-73
2021/11/06 07:37:41;;;;;;;11.88;7.45;;;;;;;10.61;83.09;101321.06;2853577;82;20979;-74
2021/11/06 07:41:43;;;;;;;15.03;7.75;;;;;;;10.76;81.88;101327.18;2853852;83;21038;-71
2021/11/06 07:45:45;;;;;;;10.72;7.90;;;;;;;10.94;81.51;101329.11;2827315;83;21050;-71
2021/11/06 07:49:46;;;;;;;9.05;6.58;;;;;;;11.07;80.89;101333.13;2853883;83;21019;-74
2021/11/06 07:53:48;;;;;;;9.23;6.40;;;;;;;11.18;80.90;101335.91;2853945;83;21031;-71
2021/11/06 07:57:50;;;;;;;11.15;6.85;;;;;;;11.26;80.31;101334.92;2853870;83;21021;-75
2021/11/06 08:01:52;;;;;;;11.00;6.15;;;;;;;11.41;79.32;101338.84;2853344;83;21043;-73
2021/11/06 08:05:54;;;;;;;11.73;5.20;;;;;;;11.48;79.73;101349.43;2853149;83;21112;-73
2021/11/06 08:09:55;;;;;;;11.08;6.20;;;;;;;11.49;78.85;101347.14;2852452;83;21134;-76
2021/11/06 08:13:57;;;;;;;9.65;5.67;;;;;;;11.41;77.38;101344.16;2851760;82;21073;-76
2021/11/06 08:17:59;;;;;;;7.97;5.62;;;;;;;11.42;78.07;101351.20;2851548;83;21090;-75
2021/11/06 08:22:01;;;;;;;6.72;4.58;;;;;;;11.46;79.24;101340.69;2851517;83;21018;-73
2021/11/06 08:26:04;;;;;;;5.90;5.22;;;;;;;11.57;77.85;101350.11;2851895;82;21046;-76
2021/11/06 08:30:06;;;;;;;5.33;4.70;;;;;;;11.71;78.63;101345.64;2851734;83;21090;-76
2021/11/06 08:34:08;;;;;;;7.17;5.10;;;;;;;11.83;77.46;101338.59;2851699;83;21022;-77
2021/11/06 08:38:11;;;;;;;5.33;3.60;;;;;;;11.93;76.11;101341.47;2851772;83;21073;-76
2021/11/06 08:42:13;;;;;;;5.95;4.40;;;;;;;11.89;76.28;101348.84;2851897;82;21043;-76
2021/11/06 08:46:15;;;;;;;5.87;4.33;;;;;;;11.79;76.01;101342.45;2852082;83;21057;-75
2021/11/06 08:50:21;;;;;;;8.43;4.33;;;;;;;11.76;77.03;101356.83;2852316;83;21058;-74
2021/11/06 08:54:24;;;;;;;7.78;5.00;;;;;;;11.66;76.70;101357.95;2838876;82;20976;-72
2021/11/06 08:58:26;;;;;;;5.58;4.67;;;;;;;11.67;77.70;101356.98;2839398;83;21008;-72
2021/11/06 09:02:28;;;;;;;6.80;3.72;;;;;;;11.58;77.51;101354.48;2839033;83;21051;-73
2021/11/06 09:06:33;;;;;;;4.62;3.62;;;;;;;11.50;76.65;101350.17;2847623;83;21038;-80
2021/11/06 09:10:33;;;;;;;8.55;4.78;;;;;;;11.47;77.21;101369.05;2848262;83;21036;-77
2021/11/06 09:14:34;;;;;;;5.65;4.25;;;;;;;11.46;77.91;101367.34;2798158;84;20972;-80
2021/11/06 09:18:38;;;;;;;8.00;3.42;;;;;;;11.42;76.58;101355.19;2848125;83;20960;-80
2021/11/06 09:22:40;;;;;;;6.87;3.67;;;;;;;11.51;77.46;101363.88;2800347;84;21094;-82
2021/11/06 09:26:45;;;;;;;4.33;2.50;;;;;;;11.51;76.82;101360.38;2851754;83;21070;-81
2021/11/06 09:30:48;;;;;;;4.65;2.95;;;;;;;11.60;76.78;101369.05;2793053;85;21035;-75
2021/11/06 09:34:49;;;;;;;4.42;2.75;;;;;;;11.73;77.60;101369.05;2853107;82;21054;-74
2021/11/06 09:38:55;;;;;;;6.67;3.65;;;;;;;11.80;76.19;101368.14;2802397;85;21019;-73
2021/11/06 09:42:56;;;;;;;3.37;3.02;;;;;;;11.98;75.25;101377.98;2852363;83;21023;-72
2021/11/06 09:46:59;;;;;;;3.05;2.33;;;;;;;12.08;75.08;101386.21;2801599;83;21043;-72
2021/11/06 09:51:01;;;;;;;7.20;3.08;;;;;;;12.18;75.40;101385.08;2854090;81;21023;-72
2021/11/06 09:55:04;;;;;;;3.65;3.25;;;;;;;12.18;73.39;101378.41;2853133;83;21031;-74
2021/11/06 09:59:06;;;;;;;6.15;3.27;;;;;;;12.25;73.29;101374.36;2852946;83;21065;-74
2021/11/06 10:03:08;;;;;;;6.72;3.37;;;;;;;12.34;74.01;101376.35;2853087;83;21036;-74
2021/11/06 10:07:25;;;;;;;2.12;1.90;;;;;;;12.41;73.21;101369.63;2852640;83;21047;-74
2021/11/06 10:11:31;;;;;;;4.55;2.25;;;;;;;12.50;72.92;101376.58;2853032;79;21062;-72
2021/11/06 10:15:38;;;;;;;3.37;2.60;;;;;;;12.49;72.71;101371.74;2853413;83;21042;-73
2021/11/06 10:19:45;;;;;;;8.65;3.65;;;;;;;12.54;72.22;101360.24;2852238;83;21034;-74
2021/11/06 10:23:43;;;;;;;4.97;3.83;;;;;;;12.55;70.78;101359.75;2855853;82;21034;-74
2021/11/06 10:27:59;;;;;;;6.28;2.83;;;;;;;12.61;71.10;101357.98;2857911;83;21621;-73
2021/11/06 10:32:03;;;;;;;1.93;1.57;;;;;;;12.50;71.53;101358.77;2858062;83;21082;-73
2021/11/06 10:36:11;;;;;;;5.15;1.90;;;;;;;12.55;71.72;101353.08;2858137;83;21301;-73
2021/11/06 10:40:14;;;;;;;2.87;1.70;;;;;;;12.55;69.40;101349.94;2808978;84;21443;-73
2021/11/06 10:44:19;;;;;;;4.30;1.62;;;;;;;12.55;70.03;101358.41;2810342;84;21657;-72
2021/11/06 10:48:25;;;;;;;2.87;1.75;;;;;;;12.65;70.36;101351.45;2809524;84;21567;-72
2021/11/06 10:52:27;;;;;;;3.10;1.57;;;;;;;12.66;69.96;101338.94;2810044;84;21105;-72
2021/11/06 10:56:42;;;;;;;2.15;1.70;;;;;;;12.78;68.70;101343.88;2810215;83;20988;-75
2021/11/06 11:00:53;;;;;;;1.90;1.35;;;;;;;12.98;70.08;101340.56;2810530;84;20971;-75
2021/11/06 11:04:54;;;;;;;2.95;1.35;;;;;;;13.18;68.10;101328.84;2810171;84;21096;-75
2021/11/06 11:08:57;;;;;;;4.40;1.57;;;;;;;13.41;68.03;101319.53;2810335;84;21138;-70
2021/11/06 11:13:15;;;;;;;5.75;1.60;;;;;;;13.44;65.84;101317.98;2810391;84;21050;-73
2021/11/06 11:17:17;;;;;;;2.40;1.37;;;;;;;13.40;66.07;101319.17;2810600;84;21026;-71
2021/11/06 11:21:25;;;;;;;1.30;1.20;;;;;;;13.42;67.07;101322.07;2809584;84;21019;-73
2021/11/06 11:25:28;;;;;;;4.65;1.60;;;;;;;13.34;65.74;101313.81;2809816;83;20999;-71
2021/11/06 11:29:34;;;;;;;1.27;0.80;;;;;;;13.36;65.88;101304.32;2851586;83;21550;-72
2021/11/06 11:33:41;;;;;;;1.87;1.07;;;;;;;13.33;65.11;101308.10;2851289;83;21054;-72
2021/11/06 11:37:43;;;;;;;0.85;0.70;;;;;;;13.26;66.52;101308.19;2851841;82;21011;-74
2021/11/06 11:42:19;;;;;;;1.15;0.80;;;;;;;13.29;66.02;101299.46;2851811;83;20990;-74
2021/11/06 11:46:28;;;;;;;3.15;1.07;;;;;;;13.31;66.66;101301.16;2804117;81;21151;-75
2021/11/06 11:50:36;;;;;;;1.82;1.32;;;;;;;13.36;66.95;101309.66;2844965;82;21131;-76
2021/11/06 11:55:08;;;;;;;0.98;0.75;;;;;;;13.31;64.38;101302.03;2844479;81;21067;-76
2021/11/06 11:59:15;;;;;;;2.80;1.12;;;;;;;13.33;66.60;101300.55;2701450;86;21082;-73
2021/11/06 12:03:33;;;;;;;1.92;1.27;;;;;;;13.24;65.42;101299.44;2696206;85;21099;-74
2021/11/06 12:07:35;;;;;;;1.92;1.50;;;;;;;13.23;65.33;101297.27;2693954;87;21066;-77
2021/11/06 12:11:53;;;;;;;1.90;1.00;;;;;;;13.39;65.14;101288.91;2700839;85;21060;-75
2021/11/06 12:16:09;;;;;;;3.45;0.70;;;;;;;13.54;65.05;101284.70;2701231;88;21697;-73
2021/11/06 12:20:31;;;;;;;1.85;1.20;;;;;;;13.61;63.70;101287.75;2700954;87;21150;-75
2021/11/06 12:24:32;;;;;;;3.83;1.72;;;;;;;13.56;64.32;101285.44;2701265;88;21047;-81
2021/11/06 12:28:34;;;;;;;3.02;1.30;;;;;;;13.42;65.54;101269.12;2701199;87;21031;-74
2021/11/06 12:32:46;;;;;;;2.42;1.27;;;;;;;13.29;66.20;101271.91;2700864;87;21117;-73
2021/11/06 12:36:47;;;;;;;2.52;1.52;;;;;;;13.17;66.10;101272.84;2843316;83;21024;-75
2021/11/06 12:40:55;;;;;;;5.97;2.55;;;;;;;13.01;66.10;101266.01;2852552;82;21320;-74
2021/11/06 12:45:06;;;;;;;4.87;2.05;;;;;;;13.00;66.09;101269.18;2843088;83;20989;-76
2021/11/06 12:49:09;;;;;;;5.45;2.30;;;;;;;12.93;66.34;101258.58;2838638;82;21060;-76
2021/11/06 12:53:13;;;;;;;2.52;1.85;;;;;;;12.81;66.66;101259.53;2806334;84;21099;-78
2021/11/06 12:57:36;;;;;;;4.00;2.20;;;;;;;12.86;66.20;101258.69;2834374;84;21080;-77
2021/11/06 13:01:41;;;;;;;3.70;2.35;;;;;;;12.84;65.77;101258.80;2806129;84;21123;-80
2021/11/06 13:05:46;;;;;;;2.37;1.77;;;;;;;12.89;67.96;101269.14;2804621;85;21056;-74
2021/11/06 13:09:48;;;;;;;2.17;1.77;;;;;;;12.83;65.88;101256.27;2834208;83;20989;-79
2021/11/06 13:13:52;;;;;;;3.30;2.60;;;;;;;12.80;67.75;101248.49;2803294;85;21024;-80
2021/11/06 13:17:54;;;;;;;2.15;1.75;;;;;;;12.67;67.47;101245.88;2805216;85;21071;-72
2021/11/06 13:21:55;;;;;;;2.85;2.17;;;;;;;12.48;68.43;101253.09;2834907;83;20993;-73
2021/11/06 13:25:58;;;;;;;5.10;2.80;;;;;;;12.39;69.76;101250.16;2805929;85;20961;-72
2021/11/06 13:30:24;;;;;;;3.37;3.02;;;;;;;12.30;69.60;101242.82;2835026;84;21059;-75
2021/11/06 13:34:40;;;;;;;6.67;2.72;;;;;;;12.25;68.89;101239.66;2805939;85;21023;-76
2021/11/06 13:39:03;;;;;;;4.10;2.93;;;;;;;12.21;69.72;101238.18;2805879;82;21045;-75
2021/11/06 13:43:18;;;;;;;7.40;3.50;;;;;;;12.17;69.28;101224.67;2863006;79;21059;-73
2021/11/06 13:52:09;;;;;;;3.98;3.12;;;;;;;12.32;69.26;101234.22;2741039;82;21057;-74
2021/11/06 13:56:10;;;;;;;5.37;3.30;;;;;;;12.43;68.79;101235.62;2741194;87;21068;-75
2021/11/06 14:00:13;;;;;;;5.72;2.83;;;;;;;12.40;68.51;101237.66;2741854;87;21616;-74
2021/11/06 14:04:17;;;;;;;5.55;2.42;;;;;;;12.30;69.71;101240.16;2741528;85;21090;-75
2021/11/06 14:08:19;;;;;;;8.30;3.60;;;;;;;12.27;70.12;101233.72;2765674;86;21055;-74
2021/11/06 14:12:48;;;;;;;7.03;2.33;;;;;;;12.26;70.61;101230.68;2756182;86;21078;-75
2021/11/06 14:17:07;;;;;;;4.60;2.72;;;;;;;12.20;69.97;101225.81;2764365;84;21042;-75
2021/11/06 14:21:23;;;;;;;3.62;2.80;;;;;;;12.21;70.59;101222.17;2757373;84;21011;-81
2021/11/06 14:25:44;;;;;;;4.95;2.77;;;;;;;12.18;69.57;101217.05;2756431;85;21431;-79
2021/11/06 14:30:10;;;;;;;2.90;2.60;;;;;;;12.17;69.35;101208.67;2757055;85;21026;-78
2021/11/06 14:34:31;;;;;;;4.97;3.50;;;;;;;12.10;69.41;101215.80;2723379;86;21099;-75
2021/11/06 14:38:50;;;;;;;2.67;2.47;;;;;;;12.08;69.57;101217.73;2763717;86;21046;-79
2021/11/06 14:42:52;;;;;;;6.25;3.90;;;;;;;12.05;70.46;101213.97;2763767;86;20999;-80
2021/11/06 14:46:57;;;;;;;4.10;2.90;;;;;;;12.07;70.35;101208.50;2763995;86;21041;-81
2021/11/06 14:51:04;;;;;;;4.15;3.05;;;;;;;12.07;70.30;101204.03;2697877;87;21147;-80
2021/11/06 14:55:10;;;;;;;3.58;2.85;;;;;;;11.96;69.81;101207.92;2695539;88;21421;-79
2021/11/06 14:59:13;;;;;;;4.95;3.62;;;;;;;11.83;69.70;101198.64;2695459;88;21030;-76
2021/11/06 15:03:21;;;;;;;5.22;3.40;;;;;;;11.66;69.69;101201.20;2702681;87;21068;-77
2021/11/06 15:07:23;;;;;;;5.55;4.10;;;;;;;11.46;69.87;101203.48;2708319;87;21084;-77
2021/11/06 15:11:25;;;;;;;4.03;3.65;;;;;;;11.28;70.45;101201.16;2708180;87;21116;-70
2021/11/06 15:15:27;;;;;;;5.42;3.83;;;;;;;11.15;70.77;101198.98;2708872;88;21104;-73
2021/11/06 15:19:30;;;;;;;4.40;3.72;;;;;;;10.99;70.98;101204.03;2708614;86;21020;-71
2021/11/06 15:23:32;;;;;;;5.72;3.35;;;;;;;10.82;70.82;101200.38;2708337;88;21020;-72
2021/11/06 15:27:34;;;;;;;6.30;4.75;;;;;;;10.74;70.99;101193.37;2708655;84;21088;-74
2021/11/06 15:31:37;;;;;;;5.40;3.95;;;;;;;10.67;71.25;101198.25;2708652;87;21052;-73
2021/11/06 15:35:39;;;;;;;5.75;3.95;;;;;;;10.57;71.32;101194.91;2708811;86;21055;-74
2021/11/06 15:39:41;;;;;;;9.80;6.83;;;;;;;10.48;71.57;101191.52;2708445;88;21049;-76
2021/11/06 15:43:42;;;;;;;8.23;6.90;;;;;;;10.34;72.02;101192.41;2708326;87;21649;-74
2021/11/06 15:47:47;;;;;;;10.68;6.12;;;;;;;10.30;72.12;101188.25;2708552;86;21424;-76
2021/11/06 15:51:51;;;;;;;6.72;6.00;;;;;;;10.22;72.61;101189.22;2712371;86;21067;-73
2021/11/06 15:55:51;;;;;;;6.37;5.15;;;;;;;10.15;72.73;101185.65;2765111;84;21100;-74
2021/11/06 15:59:53;;;;;;;7.40;6.33;;;;;;;10.10;72.88;101180.25;2796580;84;21042;-76
2021/11/06 16:03:55;;;;;;;14.13;7.87;;;;;;;10.03;73.24;101181.16;2796924;84;20995;-79
2021/11/06 16:07:56;;;;;;;14.33;8.88;;;;;;;9.97;73.22;101173.09;2718118;84;21063;-76
2021/11/06 16:11:58;;;;;;;14.73;8.58;;;;;;;9.96;73.05;101175.38;2718121;84;21009;-76
2021/11/06 16:16:04;;;;;;;11.85;8.58;;;;;;;9.92;73.21;101170.36;2718206;87;21086;-73
2021/11/06 16:20:06;;;;;;;17.07;10.93;;;;;;;9.90;73.17;101169.61;2796206;85;21054;-73
2021/11/06 16:24:09;;;;;;;21.97;11.63;;;;;;;9.88;73.07;101165.71;2793546;85;21055;-81
2021/11/06 16:28:11;;;;;;;14.65;9.43;;;;;;;9.82;73.47;101165.63;2800663;85;21089;-75
2021/11/06 16:32:12;;;;;;;13.28;9.15;;;;;;;9.78;73.74;101172.09;2752641;86;21598;-73
2021/11/06 16:36:15;;;;;;;10.23;7.25;;;;;;;9.77;73.89;101166.90;2768027;86;21117;-73
2021/11/06 16:40:16;;;;;;;12.23;7.03;;;;;;;9.69;74.19;101169.55;2767905;83;21019;-75
2021/11/06 16:44:18;;;;;;;7.53;6.45;;;;;;;9.69;74.13;101172.70;2760478;85;21015;-73
2021/11/06 16:48:21;;;;;;;13.48;8.35;;;;;;;9.65;74.31;101161.90;2760349;85;21102;-73
2021/11/06 16:52:22;;;;;;;11.12;7.47;;;;;;;9.62;74.41;101171.37;2757619;85;21015;-75
2021/11/06 16:56:24;;;;;;;12.07;8.20;;;;;;;9.57;74.45;101163.22;2757509;86;21053;-74
2021/11/06 17:00:26;;;;;;;11.60;8.68;;;;;;;9.54;74.21;101160.77;2757572;83;21021;-75
2021/11/06 17:04:28;;;;;;;24.15;10.48;;;;;;;9.54;74.16;101165.24;2757430;86;21643;-78
2021/11/06 17:12:48;;;;;;;16.07;8.50;;;;;;;9.51;73.96;101162.30;2713067;86;21014;-78
2021/11/06 17:16:51;;;;;;;8.98;6.72;;;;;;;9.44;74.26;101154.34;2757774;86;21026;-76
2021/11/06 17:20:53;;;;;;;13.55;9.50;;;;;;;9.39;74.58;101155.96;2757243;86;21065;-75
2021/11/06 17:24:54;;;;;;;14.33;8.30;;;;;;;9.42;74.68;101155.77;2757544;86;21105;-74
2021/11/06 17:28:56;;;;;;;16.20;11.95;;;;;;;9.44;74.48;101155.68;2757674;86;21046;-73
2021/11/06 17:32:58;;;;;;;15.65;11.88;;;;;;;9.39;74.44;101152.44;2756961;86;21036;-72
2021/11/06 17:36:59;;;;;;;15.72;10.28;;;;;;;9.40;74.00;101153.68;2756601;85;21016;-75
2021/11/06 17:41:01;;;;;;;16.32;11.80;;;;;;;9.40;73.72;101147.50;2756539;86;21106;-73
2021/11/06 17:45:04;;;;;;;25.40;14.80;;;;;;;9.35;73.70;101146.95;2756742;86;21023;-75
2021/11/06 17:49:07;;;;;;;25.80;16.70;;;;;;;9.26;73.78;101142.61;2756246;85;21078;-75
2021/11/06 17:53:26;;;;;;;25.23;17.85;;;;;;;9.19;73.75;101140.43;2757216;85;21528;-77
2021/11/06 17:57:15;;;;;;;23.50;16.97;;;;;;;9.11;73.87;101140.91;2754729;86;21280;-75
2021/11/06 18:01:21;;;;;;;19.12;14.50;;;;;;;9.06;73.70;101136.36;2756888;85;21035;-74
2021/11/06 18:05:23;;;;;;;24.95;15.32;;;;;;;9.00;73.71;101129.63;2757416;86;21041;-79
2021/11/06 18:09:25;;;;;;;31.00;14.80;;;;;;;8.95;73.67;101132.56;2757648;86;20963;-75
2021/11/06 18:13:26;;;;;;;25.10;16.32;;;;;;;8.85;73.94;101125.64;2757915;82;21010;-76
2021/11/06 18:17:28;;;;;;;27.62;19.15;;;;;;;8.77;74.15;101121.74;2757594;86;21038;-80
2021/11/06 18:21:30;;;;;;;32.98;20.08;;;;;;;8.70;74.22;101122.59;2757578;86;21018;-76
2021/11/06 18:25:33;;;;;;;23.35;16.17;;;;;;;8.68;74.46;101121.83;2757967;83;20991;-78
2021/11/06 18:29:34;;;;;;;27.75;18.50;;;;;;;8.65;74.63;101114.93;2758296;85;21113;-78
2021/11/06 18:33:36;;;;;;;29.42;17.87;;;;;;;8.64;74.49;101111.87;2756740;86;21055;-71
2021/11/06 18:37:38;;;;;;;27.98;18.42;;;;;;;8.54;74.70;101116.03;2756127;86;21012;-80
2021/11/06 18:41:40;;;;;;;37.25;23.65;;;;;;;8.44;75.01;101104.61;2757291;86;20972;-76
2021/11/06 18:45:42;;;;;;;34.55;21.95;;;;;;;8.34;75.28;101102.59;2756805;86;21055;-74
2021/11/06 18:49:46;;;;;;;45.63;23.98;;;;;;;8.23;75.82;101098.80;2756549;85;21070;-79
2021/11/06 18:53:48;;;;;;;37.85;24.02;;;;;;;8.15;76.30;101103.23;2757053;86;21035;-75
2021/11/06 18:57:54;;;;;;;38.17;23.45;;;;;;;8.12;76.51;101098.56;2756715;86;21110;-77
2021/11/06 19:01:53;;;;;;;38.65;24.90;;;;;;;8.09;76.89;101094.78;2755927;86;20972;-80